Roanoke — WDD9656 — position and weather

sailwx.info

Track history (hours):
 
Tides and Currents Weather Stations Pressure Air Temp Water Temp Dewpoint Dewpoint Depression Visibility Wind Speed Wind Dir Waves Ship Positions

Roanoke

Owner: Vane Line Bunkering, Philadelphia, PA. More information available from US FCC via Universal Licensing System and Coast Guard Vessel Documentation Center.

Last reported at 2017-Jun-25 08:08 UTC. Time now 2017-Jun-26 20:44 UTC.
Position N 38°04' W 075°57'.

Length 32 m; draft 13 m.

Type: Towing. MMSI: 367314510.

Date/timePositionNaut miles runAvg speedWind from/ knotsBaromVisibWave heightAir tempDewpointWater temp
2017-Jun-25 08:08N 38°04' W 075°57'0 0.1
2017-Jun-25 05:36N 38°04' W 075°57'0 0.1
2017-Jun-25 05:30N 38°04' W 075°57'0 0.0
2017-Jun-25 04:57N 38°04' W 075°57'  
2017-Jun-20 11:20N 38°19' W 075°44'2 4.6
2017-Jun-20 10:59N 38°20' W 075°43'3 5.1
2017-Jun-20 10:29N 38°21' W 075°39'  
2017-Jun-15 19:48N 38°11' W 075°59'4 7.6
2017-Jun-15 19:17N 38°13' W 075°54'2 6.4
2017-Jun-15 18:59N 38°14' W 075°52'4 5.8
2017-Jun-15 18:21N 38°16' W 075°48'5 4.1
2017-Jun-15 17:13N 38°19' W 075°44'6 1.2
2017-Jun-15 12:00N 38°22' W 075°37'0 0.0
2017-Jun-15 11:30N 38°22' W 075°37'0 0.0
2017-Jun-15 10:39N 38°22' W 075°37'0 0.0
2017-Jun-15 10:22N 38°22' W 075°37'0 0.0
2017-Jun-15 09:56N 38°22' W 075°37'0 0.0
2017-Jun-15 09:07N 38°22' W 075°37'0 0.0
2017-Jun-15 08:54N 38°22' W 075°37'0 0.0
2017-Jun-15 08:29N 38°22' W 075°37'  
Track history (hours):
 
Tides and Currents Weather Stations Pressure Air Temp Water Temp Dewpoint Dewpoint Depression Visibility Wind Speed Wind Dir Waves Ship Positions

Roanoke

Owner: Vane Line Bunkering, Philadelphia, PA. More information available from US FCC via Universal Licensing System and Coast Guard Vessel Documentation Center.

Last reported at 2017-Jun-25 08:08 UTC. Time now 2017-Jun-26 20:44 UTC.
Position N 38°04' W 075°57'.

Length 32 m; draft 13 m.

Type: Towing. MMSI: 367314510.

Date/timePositionNaut miles runAvg speedWind from/ knotsBaromVisibWave heightAir tempDewpointWater temp
2017-Jun-25 08:08N 38°04' W 075°57'0 0.1
2017-Jun-25 05:36N 38°04' W 075°57'0 0.1
2017-Jun-25 05:30N 38°04' W 075°57'0 0.0
2017-Jun-25 04:57N 38°04' W 075°57'  
2017-Jun-20 11:20N 38°19' W 075°44'2 4.6
2017-Jun-20 10:59N 38°20' W 075°43'3 5.1
2017-Jun-20 10:29N 38°21' W 075°39'  
2017-Jun-15 19:48N 38°11' W 075°59'4 7.6
2017-Jun-15 19:17N 38°13' W 075°54'2 6.4
2017-Jun-15 18:59N 38°14' W 075°52'4 5.8
2017-Jun-15 18:21N 38°16' W 075°48'5 4.1
2017-Jun-15 17:13N 38°19' W 075°44'6 1.2
2017-Jun-15 12:00N 38°22' W 075°37'0 0.0
2017-Jun-15 11:30N 38°22' W 075°37'0 0.0
2017-Jun-15 10:39N 38°22' W 075°37'0 0.0
2017-Jun-15 10:22N 38°22' W 075°37'0 0.0
2017-Jun-15 09:56N 38°22' W 075°37'0 0.0
2017-Jun-15 09:07N 38°22' W 075°37'0 0.0
2017-Jun-15 08:54N 38°22' W 075°37'0 0.0
2017-Jun-15 08:29N 38°22' W 075°37'  

Dump ship's entire track history